sensor_id;sensor_type;location;lat;lon;timestamp;temperature;humidity
53748;DHT22;39655;53.210;5.768;2023-11-21T00:00:19;10.20;98.00
53748;DHT22;39655;53.210;5.768;2023-11-21T00:02:45;10.20;98.00
53748;DHT22;39655;53.210;5.768;2023-11-21T00:05:12;10.20;98.10
53748;DHT22;39655;53.210;5.768;2023-11-21T00:07:40;10.20;98.10
53748;DHT22;39655;53.210;5.768;2023-11-21T00:10:07;10.20;98.20
53748;DHT22;39655;53.210;5.768;2023-11-21T00:12:34;10.20;98.30
53748;DHT22;39655;53.210;5.768;2023-11-21T00:15:00;10.20;98.30
53748;DHT22;39655;53.210;5.768;2023-11-21T00:17:27;10.30;98.40
53748;DHT22;39655;53.210;5.768;2023-11-21T00:19:52;10.20;98.30
53748;DHT22;39655;53.210;5.768;2023-11-21T00:22:18;10.20;98.30
53748;DHT22;39655;53.210;5.768;2023-11-21T00:24:44;10.20;98.40
53748;DHT22;39655;53.210;5.768;2023-11-21T00:27:10;10.30;98.40
53748;DHT22;39655;53.210;5.768;2023-11-21T00:29:35;10.30;98.40
53748;DHT22;39655;53.210;5.768;2023-11-21T00:32:01;10.30;98.50
53748;DHT22;39655;53.210;5.768;2023-11-21T00:34:27;10.30;98.50
53748;DHT22;39655;53.210;5.768;2023-11-21T00:36:53;10.30;98.50
53748;DHT22;39655;53.210;5.768;2023-11-21T00:39:18;10.20;98.40
53748;DHT22;39655;53.210;5.768;2023-11-21T00:41:44;10.20;98.50
53748;DHT22;39655;53.210;5.768;2023-11-21T00:44:10;10.20;98.50
53748;DHT22;39655;53.210;5.768;2023-11-21T00:46:39;10.30;98.50
53748;DHT22;39655;53.210;5.768;2023-11-21T00:49:04;10.30;98.60
53748;DHT22;39655;53.210;5.768;2023-11-21T00:51:30;10.20;98.50
53748;DHT22;39655;53.210;5.768;2023-11-21T00:53:56;10.30;98.50
53748;DHT22;39655;53.210;5.768;2023-11-21T00:56:22;10.20;98.50
53748;DHT22;39655;53.210;5.768;2023-11-21T00:58:48;10.20;98.50
53748;DHT22;39655;53.210;5.768;2023-11-21T01:01:18;10.20;98.60
53748;DHT22;39655;53.210;5.768;2023-11-21T01:03:46;10.20;98.60
53748;DHT22;39655;53.210;5.768;2023-11-21T01:06:11;10.30;98.60
53748;DHT22;39655;53.210;5.768;2023-11-21T01:08:37;10.30;98.60
53748;DHT22;39655;53.210;5.768;2023-11-21T01:11:03;10.30;98.60
53748;DHT22;39655;53.210;5.768;2023-11-21T01:13:30;10.20;98.60
53748;DHT22;39655;53.210;5.768;2023-11-21T01:15:56;10.20;98.60
53748;DHT22;39655;53.210;5.768;2023-11-21T01:18:21;10.30;98.60
53748;DHT22;39655;53.210;5.768;2023-11-21T01:20:47;10.30;98.70
53748;DHT22;39655;53.210;5.768;2023-11-21T01:23:13;10.30;98.70
53748;DHT22;39655;53.210;5.768;2023-11-21T01:25:39;10.40;98.80
53748;DHT22;39655;53.210;5.768;2023-11-21T01:28:04;10.40;98.90
53748;DHT22;39655;53.210;5.768;2023-11-21T01:30:31;10.50;98.90
53748;DHT22;39655;53.210;5.768;2023-11-21T01:32:58;10.50;98.90
53748;DHT22;39655;53.210;5.768;2023-11-21T01:35:23;10.50;98.90
53748;DHT22;39655;53.210;5.768;2023-11-21T01:37:49;10.50;98.90
53748;DHT22;39655;53.210;5.768;2023-11-21T01:40:15;10.60;98.90
53748;DHT22;39655;53.210;5.768;2023-11-21T01:42:41;10.60;98.90
53748;DHT22;39655;53.210;5.768;2023-11-21T01:45:09;10.60;98.90
53748;DHT22;39655;53.210;5.768;2023-11-21T01:47:36;10.60;98.90
53748;DHT22;39655;53.210;5.768;2023-11-21T01:50:02;10.60;98.90
53748;DHT22;39655;53.210;5.768;2023-11-21T01:52:32;10.60;98.90
53748;DHT22;39655;53.210;5.768;2023-11-21T01:54:59;10.60;98.90
53748;DHT22;39655;53.210;5.768;2023-11-21T01:57:25;10.60;98.90
53748;DHT22;39655;53.210;5.768;2023-11-21T01:59:54;10.60;98.90
53748;DHT22;39655;53.210;5.768;2023-11-21T02:02:19;10.70;99.00
53748;DHT22;39655;53.210;5.768;2023-11-21T02:04:45;10.70;98.90
53748;DHT22;39655;53.210;5.768;2023-11-21T02:07:11;10.60;98.90
53748;DHT22;39655;53.210;5.768;2023-11-21T02:09:37;10.60;98.90
53748;DHT22;39655;53.210;5.768;2023-11-21T02:12:08;10.70;98.90
53748;DHT22;39655;53.210;5.768;2023-11-21T02:14:36;10.70;98.90
53748;DHT22;39655;53.210;5.768;2023-11-21T02:17:02;10.70;99.00
53748;DHT22;39655;53.210;5.768;2023-11-21T02:19:29;10.70;99.00
53748;DHT22;39655;53.210;5.768;2023-11-21T02:21:57;10.70;99.00
53748;DHT22;39655;53.210;5.768;2023-11-21T02:24:32;10.70;99.00
53748;DHT22;39655;53.210;5.768;2023-11-21T02:26:57;10.70;99.00
53748;DHT22;39655;53.210;5.768;2023-11-21T02:29:23;10.70;98.90
53748;DHT22;39655;53.210;5.768;2023-11-21T02:31:53;10.70;99.00
53748;DHT22;39655;53.210;5.768;2023-11-21T02:34:20;10.70;99.00
53748;DHT22;39655;53.210;5.768;2023-11-21T02:36:47;10.70;99.00
53748;DHT22;39655;53.210;5.768;2023-11-21T02:39:16;10.70;99.00
53748;DHT22;39655;53.210;5.768;2023-11-21T02:41:47;10.70;99.00
53748;DHT22;39655;53.210;5.768;2023-11-21T02:44:13;10.70;99.10
53748;DHT22;39655;53.210;5.768;2023-11-21T02:46:38;10.70;99.00
53748;DHT22;39655;53.210;5.768;2023-11-21T02:49:05;10.70;99.00
53748;DHT22;39655;53.210;5.768;2023-11-21T02:51:32;10.70;99.00
53748;DHT22;39655;53.210;5.768;2023-11-21T02:53:58;10.70;99.00
53748;DHT22;39655;53.210;5.768;2023-11-21T02:56:25;10.70;99.10
53748;DHT22;39655;53.210;5.768;2023-11-21T02:58:52;10.70;99.00
53748;DHT22;39655;53.210;5.768;2023-11-21T03:01:17;10.70;99.10
53748;DHT22;39655;53.210;5.768;2023-11-21T03:03:43;10.70;99.00
53748;DHT22;39655;53.210;5.768;2023-11-21T03:06:09;10.70;99.10
53748;DHT22;39655;53.210;5.768;2023-11-21T03:08:35;10.60;99.00
53748;DHT22;39655;53.210;5.768;2023-11-21T03:11:01;10.60;99.00
53748;DHT22;39655;53.210;5.768;2023-11-21T03:13:29;10.60;99.00
53748;DHT22;39655;53.210;5.768;2023-11-21T03:15:54;10.60;99.10
53748;DHT22;39655;53.210;5.768;2023-11-21T03:18:21;10.60;99.00
53748;DHT22;39655;53.210;5.768;2023-11-21T03:20:47;10.50;99.00
53748;DHT22;39655;53.210;5.768;2023-11-21T03:23:13;10.60;99.00
53748;DHT22;39655;53.210;5.768;2023-11-21T03:25:39;10.50;99.00
53748;DHT22;39655;53.210;5.768;2023-11-21T03:28:04;10.50;99.10
53748;DHT22;39655;53.210;5.768;2023-11-21T03:30:30;10.60;99.10
53748;DHT22;39655;53.210;5.768;2023-11-21T03:32:56;10.50;99.10
53748;DHT22;39655;53.210;5.768;2023-11-21T03:35:22;10.50;99.10
53748;DHT22;39655;53.210;5.768;2023-11-21T03:37:48;10.50;99.10
53748;DHT22;39655;53.210;5.768;2023-11-21T03:40:14;10.50;99.10
53748;DHT22;39655;53.210;5.768;2023-11-21T03:42:40;10.50;99.10
53748;DHT22;39655;53.210;5.768;2023-11-21T03:45:06;10.50;99.10
53748;DHT22;39655;53.210;5.768;2023-11-21T03:47:32;10.50;99.10
53748;DHT22;39655;53.210;5.768;2023-11-21T03:49:58;10.50;99.10
53748;DHT22;39655;53.210;5.768;2023-11-21T03:52:24;10.50;99.10
53748;DHT22;39655;53.210;5.768;2023-11-21T03:54:50;10.40;99.10
53748;DHT22;39655;53.210;5.768;2023-11-21T03:57:16;10.40;99.10
53748;DHT22;39655;53.210;5.768;2023-11-21T03:59:42;10.40;99.10
53748;DHT22;39655;53.210;5.768;2023-11-21T04:02:09;10.40;99.10
53748;DHT22;39655;53.210;5.768;2023-11-21T04:04:35;10.40;99.10
53748;DHT22;39655;53.210;5.768;2023-11-21T04:07:01;10.40;99.10
53748;DHT22;39655;53.210;5.768;2023-11-21T04:09:27;10.40;99.10
53748;DHT22;39655;53.210;5.768;2023-11-21T04:11:53;10.40;99.10
53748;DHT22;39655;53.210;5.768;2023-11-21T04:14:19;10.40;99.10
53748;DHT22;39655;53.210;5.768;2023-11-21T04:16:45;10.30;99.10
53748;DHT22;39655;53.210;5.768;2023-11-21T04:19:11;10.30;99.10
53748;DHT22;39655;53.210;5.768;2023-11-21T04:21:37;10.40;99.10
53748;DHT22;39655;53.210;5.768;2023-11-21T04:24:03;10.30;99.10
53748;DHT22;39655;53.210;5.768;2023-11-21T04:26:29;10.30;99.10
53748;DHT22;39655;53.210;5.768;2023-11-21T04:28:55;10.30;99.10
53748;DHT22;39655;53.210;5.768;2023-11-21T04:31:21;10.30;99.10
53748;DHT22;39655;53.210;5.768;2023-11-21T04:33:46;10.20;99.10
53748;DHT22;39655;53.210;5.768;2023-11-21T04:36:12;10.20;99.10
53748;DHT22;39655;53.210;5.768;2023-11-21T04:38:38;10.20;99.10
53748;DHT22;39655;53.210;5.768;2023-11-21T04:41:03;10.20;99.20
53748;DHT22;39655;53.210;5.768;2023-11-21T04:43:29;10.20;99.10
53748;DHT22;39655;53.210;5.768;2023-11-21T04:45:55;10.20;99.20
53748;DHT22;39655;53.210;5.768;2023-11-21T04:48:20;10.20;99.20
53748;DHT22;39655;53.210;5.768;2023-11-21T04:50:46;10.20;99.10
53748;DHT22;39655;53.210;5.768;2023-11-21T04:53:12;10.20;99.10
53748;DHT22;39655;53.210;5.768;2023-11-21T04:55:43;10.20;99.20
53748;DHT22;39655;53.210;5.768;2023-11-21T04:58:09;10.10;99.20
53748;DHT22;39655;53.210;5.768;2023-11-21T05:00:35;10.10;99.20
53748;DHT22;39655;53.210;5.768;2023-11-21T05:03:02;10.20;99.20
53748;DHT22;39655;53.210;5.768;2023-11-21T05:05:29;10.20;99.20
53748;DHT22;39655;53.210;5.768;2023-11-21T05:07:55;10.10;99.20
53748;DHT22;39655;53.210;5.768;2023-11-21T05:10:21;10.10;99.20
53748;DHT22;39655;53.210;5.768;2023-11-21T05:12:48;10.10;99.20
53748;DHT22;39655;53.210;5.768;2023-11-21T05:15:16;10.00;99.20
53748;DHT22;39655;53.210;5.768;2023-11-21T05:17:50;10.00;99.20
53748;DHT22;39655;53.210;5.768;2023-11-21T05:20:17;9.90;99.20
53748;DHT22;39655;53.210;5.768;2023-11-21T05:22:49;9.90;99.20
53748;DHT22;39655;53.210;5.768;2023-11-21T05:25:15;9.80;99.20
53748;DHT22;39655;53.210;5.768;2023-11-21T05:27:42;9.80;99.20
53748;DHT22;39655;53.210;5.768;2023-11-21T05:30:08;9.70;99.10
53748;DHT22;39655;53.210;5.768;2023-11-21T05:32:37;9.70;99.10
53748;DHT22;39655;53.210;5.768;2023-11-21T05:35:04;9.60;99.10
53748;DHT22;39655;53.210;5.768;2023-11-21T05:37:35;9.60;99.10
53748;DHT22;39655;53.210;5.768;2023-11-21T05:40:01;9.60;99.10
53748;DHT22;39655;53.210;5.768;2023-11-21T05:42:35;9.60;99.10
53748;DHT22;39655;53.210;5.768;2023-11-21T05:45:02;9.50;99.10
53748;DHT22;39655;53.210;5.768;2023-11-21T05:47:38;9.50;99.10
53748;DHT22;39655;53.210;5.768;2023-11-21T05:50:06;9.60;99.20
53748;DHT22;39655;53.210;5.768;2023-11-21T05:52:35;9.50;99.20
53748;DHT22;39655;53.210;5.768;2023-11-21T05:55:01;9.50;99.20
53748;DHT22;39655;53.210;5.768;2023-11-21T05:57:27;9.50;99.20
53748;DHT22;39655;53.210;5.768;2023-11-21T05:59:52;9.50;99.20
53748;DHT22;39655;53.210;5.768;2023-11-21T06:02:18;9.50;99.20
53748;DHT22;39655;53.210;5.768;2023-11-21T06:04:44;9.50;99.20
53748;DHT22;39655;53.210;5.768;2023-11-21T06:07:10;9.50;99.20
53748;DHT22;39655;53.210;5.768;2023-11-21T06:09:37;9.50;99.20
53748;DHT22;39655;53.210;5.768;2023-11-21T06:12:02;9.50;99.20
53748;DHT22;39655;53.210;5.768;2023-11-21T06:14:29;9.40;99.10
53748;DHT22;39655;53.210;5.768;2023-11-21T06:16:55;9.40;99.10
53748;DHT22;39655;53.210;5.768;2023-11-21T06:19:21;9.50;99.20
53748;DHT22;39655;53.210;5.768;2023-11-21T06:21:47;9.40;99.20
53748;DHT22;39655;53.210;5.768;2023-11-21T06:24:13;9.40;99.20
53748;DHT22;39655;53.210;5.768;2023-11-21T06:26:40;9.40;99.20
53748;DHT22;39655;53.210;5.768;2023-11-21T06:29:06;9.40;99.20
53748;DHT22;39655;53.210;5.768;2023-11-21T06:31:32;9.40;99.20
53748;DHT22;39655;53.210;5.768;2023-11-21T06:33:58;9.40;99.20
53748;DHT22;39655;53.210;5.768;2023-11-21T06:36:25;9.40;99.20
53748;DHT22;39655;53.210;5.768;2023-11-21T06:38:52;9.40;99.20
53748;DHT22;39655;53.210;5.768;2023-11-21T06:41:17;9.40;99.20
53748;DHT22;39655;53.210;5.768;2023-11-21T06:43:43;9.40;99.10
53748;DHT22;39655;53.210;5.768;2023-11-21T06:46:12;9.40;99.20
53748;DHT22;39655;53.210;5.768;2023-11-21T06:48:43;9.40;99.20
53748;DHT22;39655;53.210;5.768;2023-11-21T06:51:09;9.40;99.20
53748;DHT22;39655;53.210;5.768;2023-11-21T06:53:36;9.40;99.20
53748;DHT22;39655;53.210;5.768;2023-11-21T06:56:02;9.30;99.20
53748;DHT22;39655;53.210;5.768;2023-11-21T06:58:28;9.40;99.20
53748;DHT22;39655;53.210;5.768;2023-11-21T07:00:54;9.30;99.20
53748;DHT22;39655;53.210;5.768;2023-11-21T07:03:19;9.40;99.20
53748;DHT22;39655;53.210;5.768;2023-11-21T07:05:45;9.40;99.20
53748;DHT22;39655;53.210;5.768;2023-11-21T07:08:11;9.40;99.20
53748;DHT22;39655;53.210;5.768;2023-11-21T07:10:38;9.30;99.20
53748;DHT22;39655;53.210;5.768;2023-11-21T07:13:04;9.30;99.20
53748;DHT22;39655;53.210;5.768;2023-11-21T07:15:29;9.20;99.20
53748;DHT22;39655;53.210;5.768;2023-11-21T07:17:55;9.20;99.20
53748;DHT22;39655;53.210;5.768;2023-11-21T07:20:21;9.20;99.20
53748;DHT22;39655;53.210;5.768;2023-11-21T07:22:46;9.20;99.20
53748;DHT22;39655;53.210;5.768;2023-11-21T07:25:12;9.20;99.20
53748;DHT22;39655;53.210;5.768;2023-11-21T07:27:38;9.20;99.20
53748;DHT22;39655;53.210;5.768;2023-11-21T07:30:04;9.20;99.20
53748;DHT22;39655;53.210;5.768;2023-11-21T07:32:31;9.20;99.20
53748;DHT22;39655;53.210;5.768;2023-11-21T07:34:56;9.20;99.20
53748;DHT22;39655;53.210;5.768;2023-11-21T07:37:23;9.20;99.20
53748;DHT22;39655;53.210;5.768;2023-11-21T07:39:49;9.10;99.20
53748;DHT22;39655;53.210;5.768;2023-11-21T07:42:14;9.10;99.20
53748;DHT22;39655;53.210;5.768;2023-11-21T07:44:40;9.10;99.20
53748;DHT22;39655;53.210;5.768;2023-11-21T07:47:06;9.10;99.20
53748;DHT22;39655;53.210;5.768;2023-11-21T07:49:32;9.10;99.20
53748;DHT22;39655;53.210;5.768;2023-11-21T07:51:57;9.10;99.10
53748;DHT22;39655;53.210;5.768;2023-11-21T07:54:23;9.10;99.20
53748;DHT22;39655;53.210;5.768;2023-11-21T07:56:48;9.10;99.20
53748;DHT22;39655;53.210;5.768;2023-11-21T07:59:14;9.10;99.10
53748;DHT22;39655;53.210;5.768;2023-11-21T08:01:40;9.10;99.20
53748;DHT22;39655;53.210;5.768;2023-11-21T08:04:05;9.00;99.10
53748;DHT22;39655;53.210;5.768;2023-11-21T08:06:32;9.10;99.20
53748;DHT22;39655;53.210;5.768;2023-11-21T08:09:01;9.00;99.10
53748;DHT22;39655;53.210;5.768;2023-11-21T08:11:27;9.10;99.20
53748;DHT22;39655;53.210;5.768;2023-11-21T08:13:54;9.10;99.20
53748;DHT22;39655;53.210;5.768;2023-11-21T08:16:20;9.00;99.10
53748;DHT22;39655;53.210;5.768;2023-11-21T08:18:46;9.00;99.10
53748;DHT22;39655;53.210;5.768;2023-11-21T08:21:15;9.00;99.10
53748;DHT22;39655;53.210;5.768;2023-11-21T08:23:40;9.00;99.10
53748;DHT22;39655;53.210;5.768;2023-11-21T08:26:06;8.90;99.10
53748;DHT22;39655;53.210;5.768;2023-11-21T08:28:32;8.90;99.10
53748;DHT22;39655;53.210;5.768;2023-11-21T08:30:57;8.90;99.00
53748;DHT22;39655;53.210;5.768;2023-11-21T08:33:23;9.00;99.10
53748;DHT22;39655;53.210;5.768;2023-11-21T08:35:49;9.00;99.10
53748;DHT22;39655;53.210;5.768;2023-11-21T08:38:14;9.10;99.10
53748;DHT22;39655;53.210;5.768;2023-11-21T08:40:40;9.10;99.10
53748;DHT22;39655;53.210;5.768;2023-11-21T08:43:06;9.10;99.10
53748;DHT22;39655;53.210;5.768;2023-11-21T08:45:32;9.20;99.10
53748;DHT22;39655;53.210;5.768;2023-11-21T08:48:00;9.20;99.10
53748;DHT22;39655;53.210;5.768;2023-11-21T08:50:26;9.10;99.00
53748;DHT22;39655;53.210;5.768;2023-11-21T08:52:51;9.20;99.10
53748;DHT22;39655;53.210;5.768;2023-11-21T08:55:17;9.20;99.10
53748;DHT22;39655;53.210;5.768;2023-11-21T08:57:45;9.10;99.00
53748;DHT22;39655;53.210;5.768;2023-11-21T09:00:12;9.10;98.90
53748;DHT22;39655;53.210;5.768;2023-11-21T09:02:39;9.20;99.00
53748;DHT22;39655;53.210;5.768;2023-11-21T09:05:08;9.10;99.00
53748;DHT22;39655;53.210;5.768;2023-11-21T09:07:34;9.10;99.00
53748;DHT22;39655;53.210;5.768;2023-11-21T09:10:01;9.20;99.00
53748;DHT22;39655;53.210;5.768;2023-11-21T09:12:26;9.20;99.10
53748;DHT22;39655;53.210;5.768;2023-11-21T09:14:52;9.20;99.00
53748;DHT22;39655;53.210;5.768;2023-11-21T09:17:18;9.20;99.00
53748;DHT22;39655;53.210;5.768;2023-11-21T09:19:44;9.30;99.00
53748;DHT22;39655;53.210;5.768;2023-11-21T09:22:12;9.30;98.90
53748;DHT22;39655;53.210;5.768;2023-11-21T09:24:38;9.40;98.80
53748;DHT22;39655;53.210;5.768;2023-11-21T09:27:04;9.50;98.90
53748;DHT22;39655;53.210;5.768;2023-11-21T09:29:30;9.60;98.90
53748;DHT22;39655;53.210;5.768;2023-11-21T09:31:57;9.60;98.80
53748;DHT22;39655;53.210;5.768;2023-11-21T09:34:26;9.70;98.80
53748;DHT22;39655;53.210;5.768;2023-11-21T09:36:52;9.90;98.70
53748;DHT22;39655;53.210;5.768;2023-11-21T09:39:19;10.00;98.60
53748;DHT22;39655;53.210;5.768;2023-11-21T09:41:49;10.10;98.40
53748;DHT22;39655;53.210;5.768;2023-11-21T09:44:18;10.20;98.20
53748;DHT22;39655;53.210;5.768;2023-11-21T09:46:48;10.20;97.80
53748;DHT22;39655;53.210;5.768;2023-11-21T09:49:15;10.30;97.50
53748;DHT22;39655;53.210;5.768;2023-11-21T09:51:47;10.30;97.40
53748;DHT22;39655;53.210;5.768;2023-11-21T09:54:15;10.30;96.50
53748;DHT22;39655;53.210;5.768;2023-11-21T09:56:41;10.30;96.40
53748;DHT22;39655;53.210;5.768;2023-11-21T09:59:12;10.20;95.90
53748;DHT22;39655;53.210;5.768;2023-11-21T10:01:40;10.20;95.40
53748;DHT22;39655;53.210;5.768;2023-11-21T10:04:06;10.10;95.30
53748;DHT22;39655;53.210;5.768;2023-11-21T10:06:41;10.00;95.10
53748;DHT22;39655;53.210;5.768;2023-11-21T10:09:09;10.00;94.90
53748;DHT22;39655;53.210;5.768;2023-11-21T10:11:43;9.90;94.90
53748;DHT22;39655;53.210;5.768;2023-11-21T10:14:12;9.90;94.60
53748;DHT22;39655;53.210;5.768;2023-11-21T10:16:40;9.90;94.30
53748;DHT22;39655;53.210;5.768;2023-11-21T10:19:09;9.80;94.20
53748;DHT22;39655;53.210;5.768;2023-11-21T10:21:36;9.80;94.00
53748;DHT22;39655;53.210;5.768;2023-11-21T10:24:03;9.70;94.00
53748;DHT22;39655;53.210;5.768;2023-11-21T10:26:28;9.70;94.00
53748;DHT22;39655;53.210;5.768;2023-11-21T10:29:03;9.70;93.70
53748;DHT22;39655;53.210;5.768;2023-11-21T10:31:30;9.70;93.90
53748;DHT22;39655;53.210;5.768;2023-11-21T10:34:17;9.80;93.90
53748;DHT22;39655;53.210;5.768;2023-11-21T10:36:44;9.80;93.60
53748;DHT22;39655;53.210;5.768;2023-11-21T10:39:16;9.70;93.40
53748;DHT22;39655;53.210;5.768;2023-11-21T10:41:45;9.70;93.10
53748;DHT22;39655;53.210;5.768;2023-11-21T10:44:14;9.70;93.40
53748;DHT22;39655;53.210;5.768;2023-11-21T10:46:46;9.60;93.10
53748;DHT22;39655;53.210;5.768;2023-11-21T10:49:18;9.70;93.40
53748;DHT22;39655;53.210;5.768;2023-11-21T10:51:45;9.60;93.60
53748;DHT22;39655;53.210;5.768;2023-11-21T10:54:10;9.60;93.50
53748;DHT22;39655;53.210;5.768;2023-11-21T10:56:39;9.60;93.60
53748;DHT22;39655;53.210;5.768;2023-11-21T10:59:10;9.60;93.40
53748;DHT22;39655;53.210;5.768;2023-11-21T11:01:42;9.60;93.20
53748;DHT22;39655;53.210;5.768;2023-11-21T11:04:11;9.70;93.10
53748;DHT22;39655;53.210;5.768;2023-11-21T11:06:43;9.70;92.70
53748;DHT22;39655;53.210;5.768;2023-11-21T11:09:13;9.80;92.50
53748;DHT22;39655;53.210;5.768;2023-11-21T11:11:40;10.00;92.30
53748;DHT22;39655;53.210;5.768;2023-11-21T11:14:10;10.20;92.50
53748;DHT22;39655;53.210;5.768;2023-11-21T11:16:37;10.10;91.80
53748;DHT22;39655;53.210;5.768;2023-11-21T11:19:05;10.10;91.90
53748;DHT22;39655;53.210;5.768;2023-11-21T11:21:48;10.10;91.50
53748;DHT22;39655;53.210;5.768;2023-11-21T11:24:52;10.00;91.30
53748;DHT22;39655;53.210;5.768;2023-11-21T11:27:44;10.10;91.60
53748;DHT22;39655;53.210;5.768;2023-11-21T11:38:38;10.30;90.10
53748;DHT22;39655;53.210;5.768;2023-11-21T11:41:06;10.20;90.60
53748;DHT22;39655;53.210;5.768;2023-11-21T11:43:32;10.40;90.70
53748;DHT22;39655;53.210;5.768;2023-11-21T11:46:01;10.60;90.70
53748;DHT22;39655;53.210;5.768;2023-11-21T11:48:29;10.70;90.50
53748;DHT22;39655;53.210;5.768;2023-11-21T11:51:02;11.00;90.50
53748;DHT22;39655;53.210;5.768;2023-11-21T11:53:45;11.90;90.10
53748;DHT22;39655;53.210;5.768;2023-11-21T11:56:31;12.50;88.40
53748;DHT22;39655;53.210;5.768;2023-11-21T11:59:02;12.20;86.20
53748;DHT22;39655;53.210;5.768;2023-11-21T12:01:29;11.70;85.40
53748;DHT22;39655;53.210;5.768;2023-11-21T12:06:51;12.20;84.90
53748;DHT22;39655;53.210;5.768;2023-11-21T12:11:45;12.10;81.50
53748;DHT22;39655;53.210;5.768;2023-11-21T12:14:12;11.70;81.80
53748;DHT22;39655;53.210;5.768;2023-11-21T12:16:39;11.40;82.60
53748;DHT22;39655;53.210;5.768;2023-11-21T12:19:05;11.50;82.80
53748;DHT22;39655;53.210;5.768;2023-11-21T12:21:30;12.10;81.50
53748;DHT22;39655;53.210;5.768;2023-11-21T12:23:58;12.90;80.20
53748;DHT22;39655;53.210;5.768;2023-11-21T12:26:24;13.60;77.60
53748;DHT22;39655;53.210;5.768;2023-11-21T12:28:53;14.20;76.10
53748;DHT22;39655;53.210;5.768;2023-11-21T12:31:24;14.30;73.60
53748;DHT22;39655;53.210;5.768;2023-11-21T12:33:50;14.50;72.10
53748;DHT22;39655;53.210;5.768;2023-11-21T12:36:16;14.60;69.00
53748;DHT22;39655;53.210;5.768;2023-11-21T12:38:42;14.60;69.60
53748;DHT22;39655;53.210;5.768;2023-11-21T12:41:11;13.80;69.60
53748;DHT22;39655;53.210;5.768;2023-11-21T12:43:37;12.90;72.60
53748;DHT22;39655;53.210;5.768;2023-11-21T12:46:08;12.30;74.30
53748;DHT22;39655;53.210;5.768;2023-11-21T12:48:38;11.60;75.60
53748;DHT22;39655;53.210;5.768;2023-11-21T12:51:08;11.20;77.00
53748;DHT22;39655;53.210;5.768;2023-11-21T12:53:34;11.00;78.60
53748;DHT22;39655;53.210;5.768;2023-11-21T12:56:13;10.80;79.70
53748;DHT22;39655;53.210;5.768;2023-11-21T12:58:39;10.80;80.50
53748;DHT22;39655;53.210;5.768;2023-11-21T13:01:07;10.70;80.60
53748;DHT22;39655;53.210;5.768;2023-11-21T13:03:38;10.70;81.40
53748;DHT22;39655;53.210;5.768;2023-11-21T13:06:06;10.70;81.80
53748;DHT22;39655;53.210;5.768;2023-11-21T13:08:33;10.60;81.40
53748;DHT22;39655;53.210;5.768;2023-11-21T13:10:59;10.50;81.30
53748;DHT22;39655;53.210;5.768;2023-11-21T13:13:28;10.30;81.80
53748;DHT22;39655;53.210;5.768;2023-11-21T13:15:56;10.30;82.10
53748;DHT22;39655;53.210;5.768;2023-11-21T13:18:25;10.40;83.00
53748;DHT22;39655;53.210;5.768;2023-11-21T13:20:58;11.30;83.00
53748;DHT22;39655;53.210;5.768;2023-11-21T13:23:25;12.60;82.10
53748;DHT22;39655;53.210;5.768;2023-11-21T13:25:51;13.30;79.50
53748;DHT22;39655;53.210;5.768;2023-11-21T13:28:17;13.00;76.90
53748;DHT22;39655;53.210;5.768;2023-11-21T13:30:50;12.40;76.90
53748;DHT22;39655;53.210;5.768;2023-11-21T13:33:18;11.80;77.90
53748;DHT22;39655;53.210;5.768;2023-11-21T13:35:47;11.40;79.10
53748;DHT22;39655;53.210;5.768;2023-11-21T13:38:15;11.20;79.30
53748;DHT22;39655;53.210;5.768;2023-11-21T13:40:52;10.90;80.00
53748;DHT22;39655;53.210;5.768;2023-11-21T13:43:23;10.60;80.90
53748;DHT22;39655;53.210;5.768;2023-11-21T13:45:51;10.30;81.80
53748;DHT22;39655;53.210;5.768;2023-11-21T13:48:24;10.20;82.90
53748;DHT22;39655;53.210;5.768;2023-11-21T13:51:15;10.10;83.30
53748;DHT22;39655;53.210;5.768;2023-11-21T13:53:46;9.90;84.00
53748;DHT22;39655;53.210;5.768;2023-11-21T13:56:18;9.70;84.30
53748;DHT22;39655;53.210;5.768;2023-11-21T13:58:52;9.70;84.90
53748;DHT22;39655;53.210;5.768;2023-11-21T14:01:23;9.60;85.30
53748;DHT22;39655;53.210;5.768;2023-11-21T14:04:14;9.50;85.80
53748;DHT22;39655;53.210;5.768;2023-11-21T14:06:40;9.40;86.30
53748;DHT22;39655;53.210;5.768;2023-11-21T14:09:17;9.30;86.90
53748;DHT22;39655;53.210;5.768;2023-11-21T14:11:56;9.30;87.20
53748;DHT22;39655;53.210;5.768;2023-11-21T14:14:24;9.20;88.20
53748;DHT22;39655;53.210;5.768;2023-11-21T14:16:56;9.10;88.40
53748;DHT22;39655;53.210;5.768;2023-11-21T14:19:22;9.10;88.60
53748;DHT22;39655;53.210;5.768;2023-11-21T14:21:53;9.10;88.70
53748;DHT22;39655;53.210;5.768;2023-11-21T14:24:19;9.10;89.00
53748;DHT22;39655;53.210;5.768;2023-11-21T14:26:46;9.10;88.80
53748;DHT22;39655;53.210;5.768;2023-11-21T14:29:12;9.00;88.60
53748;DHT22;39655;53.210;5.768;2023-11-21T14:31:41;9.10;88.60
53748;DHT22;39655;53.210;5.768;2023-11-21T14:34:07;9.00;88.90
53748;DHT22;39655;53.210;5.768;2023-11-21T14:36:34;9.00;88.80
53748;DHT22;39655;53.210;5.768;2023-11-21T14:39:00;8.90;89.00
53748;DHT22;39655;53.210;5.768;2023-11-21T14:41:25;8.70;89.50
53748;DHT22;39655;53.210;5.768;2023-11-21T14:43:53;8.70;89.70
53748;DHT22;39655;53.210;5.768;2023-11-21T14:46:19;8.60;89.80
53748;DHT22;39655;53.210;5.768;2023-11-21T14:48:45;8.50;90.00
53748;DHT22;39655;53.210;5.768;2023-11-21T14:51:28;8.40;90.20
53748;DHT22;39655;53.210;5.768;2023-11-21T14:53:57;8.40;90.10
53748;DHT22;39655;53.210;5.768;2023-11-21T14:56:31;8.30;90.40
53748;DHT22;39655;53.210;5.768;2023-11-21T14:59:00;8.20;90.50
53748;DHT22;39655;53.210;5.768;2023-11-21T15:01:32;8.20;90.70
53748;DHT22;39655;53.210;5.768;2023-11-21T15:04:22;8.10;90.90
53748;DHT22;39655;53.210;5.768;2023-11-21T15:07:02;8.10;91.10
53748;DHT22;39655;53.210;5.768;2023-11-21T15:09:28;8.10;91.30
53748;DHT22;39655;53.210;5.768;2023-11-21T15:12:04;8.10;91.30
53748;DHT22;39655;53.210;5.768;2023-11-21T15:14:43;8.10;91.30
53748;DHT22;39655;53.210;5.768;2023-11-21T15:17:19;8.10;91.20
53748;DHT22;39655;53.210;5.768;2023-11-21T15:19:51;8.10;91.00
53748;DHT22;39655;53.210;5.768;2023-11-21T15:22:17;8.00;91.00
53748;DHT22;39655;53.210;5.768;2023-11-21T15:24:43;7.90;91.00
53748;DHT22;39655;53.210;5.768;2023-11-21T15:27:12;7.80;91.00
53748;DHT22;39655;53.210;5.768;2023-11-21T15:29:39;7.60;91.10
53748;DHT22;39655;53.210;5.768;2023-11-21T15:32:06;7.50;91.30
53748;DHT22;39655;53.210;5.768;2023-11-21T15:34:33;7.40;91.40
53748;DHT22;39655;53.210;5.768;2023-11-21T15:36:58;7.30;91.60
53748;DHT22;39655;53.210;5.768;2023-11-21T15:39:24;7.30;91.70
53748;DHT22;39655;53.210;5.768;2023-11-21T15:41:54;7.20;91.80
53748;DHT22;39655;53.210;5.768;2023-11-21T15:44:20;7.10;91.90
53748;DHT22;39655;53.210;5.768;2023-11-21T15:46:46;7.00;92.10
53748;DHT22;39655;53.210;5.768;2023-11-21T15:49:13;7.00;92.20
53748;DHT22;39655;53.210;5.768;2023-11-21T15:51:44;6.90;92.40
53748;DHT22;39655;53.210;5.768;2023-11-21T15:54:12;6.90;92.50